Platzwetter / Webcam

  • Aktuelles Bild
  • Verlauf
  • Verlauf
  • Verlauf
  • Verlauf
  • Verlauf
  • Verlauf
  • Verlauf
  • Verlauf
  • Verlauf
  • Verlauf
  • Verlauf
  • Verlauf
  • Verlauf
  • Verlauf
  • Verlauf
  • Verlauf
  • Verlauf

Flugwetter Linz

[Quelle: ADDS]
METAR
LOWL 232350Z AUTO 28005KT 9999 //////CB BKN120 15/10 Q1018 =
TAF
LOWL 232315Z 2400/2424 27008KT 9999 SCT050 SCT250 TX19/2413Z TN11/2424Z TEMPO 2400/2405 24004KT -SHRA SCT030 BKN050 PROB30 TEMPO 2400/2403 30015G25KT 5000 TSRA SCT030CB BKN040 BECMG 2405/2408 27015G25KT TEMPO 2408/2416 30020G35KT FEW040 BECMG 2416/2419 27010KT TEMPO 2418/2422 SHRA FEW050TCU BKN060 =

Flugwetter Salzburg

[Quelle: ADDS]
METAR
LOWS 232350Z AUTO 15009KT 9999 FEW050 BKN060 15/11 Q1019 =
TAF
LOWS 232315Z 2400/2424 16008KT 9999 FEW050 SCT080 TX18/2414Z TN12/2424Z TEMPO 2400/2408 29010KT 8000 SHRA FEW050TCU BKN060 PROB30 TEMPO 2400/2402 4000 TSRA FEW040CB BKN050 BECMG 2406/2408 29010G20KT TEMPO 2410/2416 32015G25KT TEMPO 2417/2424 31008KT SHRA FEW040TCU BKN050 =

Fliegen lernen

Die Fliegerschule der WMW...

Termine & Events

Alle Termine anzeigen...

Mietwagen

am Flugplatz Wels 
Toyota Aygo 1.0 VVTi 5tg.

1/2 Tag      25,- Euro
1 Tag   50,- Euro
Wochenende   100,- Euro

Weitere Infos...

+++ Aktuelle Spritpreise (24.04.2017): | Jet A-1 € 1,340 | Super Plus 98 ETBE € 1,418 | Avgas 100LL € 1,992 | +++